St Louis Regional Airport Alton,St Louis US
ICAO: KALN
IATA: ALN
Category: Medium
Scheduled Services: No

Elevation: 544 ft
TransAlt. 18000 ft.

Airport Communications:
APP/DEP:124.2
ATIS:128
AWOS 3:128
CLNC DEL:120.2
CTAF:126
GND:120.2
RDO:122.05
REGIONAL TWR:126
UNICOM:122.95

KALN Zoom In..

Runways:

(A) RW 11 length 8099 ft width 150 ft
---- / hdg 114

(B) RW 17 length 6500 ft width 100 ft
---- / hdg 174

(C) RW 29 length 8099 ft width 150 ft
ILS 108.50 / hdg 294

(D) RW 35 length 6500 ft width 100 ft
---- / hdg 354

Location; KALN
Day. 26 / Time. 13.52 Zulu
* Altimeter: 29.85
* Temperature: 24° c. 75.2°f.
* Wind from: 210° Speed 07 kn.
Dewpoint: 22° c.
Visibility: 10 Statute Miles.
Clouds: Few 15000 ft.
Clouds: Broken 25000 ft.

KALN 261352Z 21007KT 10SM FEW150 BKN250 24/22 A2985


Wind From 210°
Speed 07 kn.

 
 
jpsmedia.com for Web Design SOUNDCLOUD worldairports.se 2018   terms of use